Time;durP1;ratioP1;P1;durP2;ratioP2;P2;SDS_P1;SDS_P2;PMS_P1;PMS_P2;Temp;Humidity;BMP_temperature;BMP_pressure;BME280_temperature;BME280_humidity;BME280_pressure;Samples;Min_cycle;Max_cycle;Signal;HPM_P1;HPM_P2
2022/02/22 00:41:46;;;;;;;6.85;2.03;;;;;;;7.54;81.20;97974.28;4105070;28;20220;-86
2022/02/22 00:43:49;;;;;;;3.13;1.60;;;;;;;7.54;81.43;97989.84;4111784;28;20712;-87
2022/02/22 00:45:52;;;;;;;6.15;1.83;;;;;;;7.57;79.57;97984.47;4123606;28;21276;-86
2022/02/22 00:47:55;;;;;;;6.68;1.90;;;;;;;7.53;78.11;97995.97;4123782;28;20583;-86
2022/02/22 00:49:58;;;;;;;7.63;1.92;;;;;;;7.54;79.64;98002.00;4097744;28;20209;-86
2022/02/22 00:52:01;;;;;;;8.35;2.70;;;;;;;7.56;79.15;98015.69;4135274;28;20213;-87
2022/02/22 00:54:04;;;;;;;3.55;1.92;;;;;;;7.59;79.26;98007.75;4121866;28;20669;-86
2022/02/22 00:56:08;;;;;;;5.45;1.83;;;;;;;7.58;76.86;98016.47;4101343;28;20214;-86
2022/02/22 00:58:12;;;;;;;3.47;1.58;;;;;;;7.55;76.50;98011.47;4108987;28;20560;-86
2022/02/22 01:00:15;;;;;;;5.72;2.03;;;;;;;7.55;77.01;98020.06;4124466;28;20232;-87
2022/02/22 01:02:18;;;;;;;6.65;2.00;;;;;;;7.60;77.26;98023.22;4117041;28;20209;-86
2022/02/22 01:04:21;;;;;;;5.93;1.50;;;;;;;7.57;77.00;98018.22;4119536;28;20293;-87
2022/02/22 01:06:24;;;;;;;3.72;1.80;;;;;;;7.65;76.11;98041.13;4119699;28;20212;-86
2022/02/22 01:08:27;;;;;;;8.52;2.42;;;;;;;7.70;77.30;98041.72;4118787;28;20238;-86
2022/02/22 01:10:33;;;;;;;3.70;1.50;;;;;;;7.65;76.95;98041.13;4104699;28;20236;-87
2022/02/22 01:12:36;;;;;;;5.75;1.42;;;;;;;7.67;76.80;98049.69;4122131;28;20199;-86
2022/02/22 01:14:41;;;;;;;8.63;1.80;;;;;;;7.72;77.30;98058.03;4119733;28;20206;-86
2022/02/22 01:16:44;;;;;;;5.85;1.73;;;;;;;7.71;78.68;98061.53;4125298;28;20221;-87
2022/02/22 01:18:47;;;;;;;10.20;1.70;;;;;;;7.72;79.04;98058.03;4101101;28;20569;-86
2022/02/22 01:20:50;;;;;;;8.20;1.47;;;;;;;7.73;79.22;98060.53;4120631;28;20634;-86
2022/02/22 01:22:56;;;;;;;7.07;1.50;;;;;;;7.73;79.48;98072.69;4112278;28;21030;-86
2022/02/22 01:25:00;;;;;;;6.70;2.00;;;;;;;7.76;80.12;98075.09;4119161;28;20206;-87
2022/02/22 01:27:04;;;;;;;10.85;2.47;;;;;;;7.77;80.76;98079.34;4122136;28;20225;-86
2022/02/22 01:29:07;;;;;;;6.25;1.50;;;;;;;7.75;80.13;98092.41;4184376;28;20275;-86
2022/02/22 01:31:11;;;;;;;6.72;1.52;;;;;;;7.71;79.28;98084.88;4105478;28;20240;-86
2022/02/22 01:33:14;;;;;;;4.40;2.05;;;;;;;7.69;80.21;98090.16;4132817;28;20700;-86
2022/02/22 01:35:18;;;;;;;6.23;1.80;;;;;;;7.70;79.76;98098.81;4103849;28;20217;-86
2022/02/22 01:37:21;;;;;;;6.65;1.92;;;;;;;7.70;81.42;98098.81;4120299;28;20652;-87
2022/02/22 01:39:24;;;;;;;5.20;1.77;;;;;;;7.72;79.68;98112.53;4109282;28;20570;-86
2022/02/22 01:41:29;;;;;;;7.13;1.75;;;;;;;7.69;80.22;98108.34;4108571;28;20671;-85
2022/02/22 01:43:32;;;;;;;8.80;2.80;;;;;;;7.80;78.80;98111.16;4111418;28;20238;-86
2022/02/22 01:45:36;;;;;;;6.10;1.85;;;;;;;7.77;80.60;98111.34;4101974;28;20643;-86
2022/02/22 01:47:40;;;;;;;6.72;1.88;;;;;;;7.74;79.92;98106.34;4134218;28;20272;-86
2022/02/22 01:49:44;;;;;;;6.13;1.30;;;;;;;7.71;79.59;98106.50;4134416;28;20224;-86
2022/02/22 01:51:47;;;;;;;7.93;1.60;;;;;;;7.69;80.42;98102.31;4117854;28;20684;-86
2022/02/22 01:53:50;;;;;;;5.65;1.80;;;;;;;7.66;79.29;98118.88;4121098;28;20638;-86
2022/02/22 01:55:53;;;;;;;4.72;1.70;;;;;;;7.63;79.69;98113.06;4119334;28;20222;-86
2022/02/22 01:57:56;;;;;;;3.90;1.80;;;;;;;7.65;79.49;98111.19;4120106;28;20235;-86
2022/02/22 02:00:00;;;;;;;7.40;1.70;;;;;;;7.63;79.58;98123.44;4126323;28;20217;-86
2022/02/22 02:02:05;;;;;;;5.60;1.90;;;;;;;7.58;81.09;98120.25;4116487;28;20297;-86
2022/02/22 02:04:09;;;;;;;8.48;2.28;;;;;;;7.58;81.10;98109.88;4106561;28;20629;-85
2022/02/22 02:06:12;;;;;;;6.57;1.73;;;;;;;7.56;80.72;98124.69;4105645;28;20212;-86
2022/02/22 02:08:15;;;;;;;6.82;2.58;;;;;;;7.49;80.72;98123.38;4118254;28;20250;-86
2022/02/22 02:10:18;;;;;;;4.63;1.48;;;;;;;7.43;81.68;98131.50;4116184;28;20647;-87
2022/02/22 02:12:22;;;;;;;4.47;1.90;;;;;;;7.43;81.96;98135.81;4118653;28;20210;-87
2022/02/22 02:14:25;;;;;;;4.68;1.80;;;;;;;7.40;84.43;98126.47;4120541;28;20266;-87
2022/02/22 02:16:28;;;;;;;3.65;1.42;;;;;;;7.33;84.34;98135.50;4122996;28;20217;-86
2022/02/22 02:18:32;;;;;;;5.13;1.70;;;;;;;7.28;85.70;98128.91;4125514;28;20199;-86
2022/02/22 02:20:36;;;;;;;4.03;1.70;;;;;;;7.21;85.42;98132.75;4121908;28;20766;-86
2022/02/22 02:22:43;;;;;;;5.55;2.05;;;;;;;7.20;86.20;98138.84;4115111;28;20580;-86
2022/02/22 02:24:46;;;;;;;7.18;1.75;;;;;;;7.22;87.17;98148.22;4118494;28;20204;-86
2022/02/22 02:26:51;;;;;;;6.68;2.20;;;;;;;7.19;86.08;98135.44;4118783;28;20318;-87
2022/02/22 02:28:54;;;;;;;12.07;2.53;;;;;;;7.23;86.66;98138.69;4119931;28;20210;-86
2022/02/22 02:30:57;;;;;;;7.35;2.22;;;;;;;7.20;86.36;98142.28;4124087;28;20673;-86
2022/02/22 02:33:00;;;;;;;4.25;1.30;;;;;;;7.22;87.76;98140.44;4119758;28;20225;-87
2022/02/22 02:35:04;;;;;;;5.53;2.10;;;;;;;7.20;88.20;98144.88;4120211;28;20213;-87
2022/02/22 02:37:07;;;;;;;3.80;1.88;;;;;;;7.21;88.18;98146.53;4099747;28;20210;-87
2022/02/22 02:39:13;;;;;;;3.92;1.85;;;;;;;7.20;88.01;98137.09;4121335;28;20225;-86
2022/02/22 02:41:16;;;;;;;8.13;2.10;;;;;;;7.16;89.62;98142.53;4120903;28;21324;-87
2022/02/22 02:43:19;;;;;;;4.88;1.92;;;;;;;7.18;89.54;98138.94;4120775;28;20212;-87
2022/02/22 02:45:23;;;;;;;5.15;1.80;;;;;;;7.18;88.59;98138.94;4121879;28;20210;-85
2022/02/22 02:47:26;;;;;;;6.03;1.70;;;;;;;7.13;89.45;98138.34;4123760;28;20565;-86
2022/02/22 02:49:29;;;;;;;8.45;1.90;;;;;;;7.08;89.20;98150.72;4106265;28;20261;-87
2022/02/22 02:51:33;;;;;;;6.45;2.28;;;;;;;7.14;90.28;98153.00;4105644;28;20214;-86
2022/02/22 02:53:36;;;;;;;11.00;2.60;;;;;;;7.12;90.57;98160.00;4120001;28;20213;-87
2022/02/22 02:55:41;;;;;;;8.25;2.35;;;;;;;7.13;90.42;98164.28;4109031;28;20217;-87
2022/02/22 02:57:44;;;;;;;6.30;1.83;;;;;;;7.13;90.03;98179.00;4121214;28;20231;-87
2022/02/22 02:59:48;;;;;;;5.35;2.40;;;;;;;7.09;91.14;98183.50;4103427;28;20209;-87
2022/02/22 03:01:51;;;;;;;5.65;1.92;;;;;;;7.09;90.00;98178.31;4118094;28;20212;-86
2022/02/22 03:03:54;;;;;;;14.32;2.72;;;;;;;7.12;91.24;98187.69;4103712;28;20300;-87
2022/02/22 03:05:58;;;;;;;5.95;2.00;;;;;;;7.11;90.96;98198.97;4118150;28;20216;-87
2022/02/22 03:08:01;;;;;;;8.57;2.10;;;;;;;7.11;91.44;98205.03;4102246;28;20210;-86
2022/02/22 03:10:06;;;;;;;4.70;2.38;;;;;;;7.10;90.79;98205.09;4119006;28;20251;-86
2022/02/22 03:12:11;;;;;;;6.37;1.93;;;;;;;7.07;90.48;98213.88;4120573;28;20210;-86
2022/02/22 03:14:14;;;;;;;8.07;2.28;;;;;;;7.09;89.96;98213.78;4115364;28;21477;-86
2022/02/22 03:16:17;;;;;;;5.65;2.30;;;;;;;7.10;90.82;98216.28;4118380;28;20209;-86
2022/02/22 03:18:20;;;;;;;7.35;2.33;;;;;;;7.13;89.83;98215.31;4100608;28;20205;-86
2022/02/22 03:20:23;;;;;;;8.07;1.90;;;;;;;7.15;89.69;98216.88;4124954;28;20214;-86
2022/02/22 03:22:26;;;;;;;6.30;1.83;;;;;;;7.13;89.49;98229.09;4128355;28;20717;-86
2022/02/22 03:24:29;;;;;;;6.03;2.20;;;;;;;7.14;90.09;98224.75;4122594;28;20200;-86
2022/02/22 03:26:32;;;;;;;5.13;1.67;;;;;;;7.17;88.95;98234.94;4120531;28;20207;-87
2022/02/22 03:28:37;;;;;;;7.40;2.47;;;;;;;7.16;87.93;98234.13;4124499;28;21033;-86
2022/02/22 03:30:40;;;;;;;2.78;1.80;;;;;;;7.13;88.35;98230.88;4102362;28;20723;-87
2022/02/22 03:32:43;;;;;;;3.60;2.27;;;;;;;7.07;87.24;98226.00;4121087;28;20233;-86
2022/02/22 03:34:46;;;;;;;6.88;1.42;;;;;;;6.94;87.98;98239.69;4123652;28;20643;-86
2022/02/22 03:36:49;;;;;;;4.43;1.83;;;;;;;6.85;87.17;98240.16;4121537;28;20208;-86
2022/02/22 03:38:54;;;;;;;12.50;2.10;;;;;;;6.64;88.02;98247.25;4120843;28;20212;-87
2022/02/22 03:40:57;;;;;;;8.80;2.05;;;;;;;6.59;88.24;98251.81;4124171;28;20308;-86
2022/02/22 03:43:01;;;;;;;7.55;2.15;;;;;;;6.66;88.47;98260.13;4102774;28;20244;-87
2022/02/22 03:45:07;;;;;;;5.78;2.20;;;;;;;6.68;88.89;98266.09;4119316;28;20258;-85
2022/02/22 03:47:10;;;;;;;8.45;2.13;;;;;;;6.70;88.25;98269.44;4120372;28;20319;-86
2022/02/22 03:49:15;;;;;;;6.10;2.10;;;;;;;6.73;88.80;98271.88;4121319;28;20659;-87
2022/02/22 03:51:18;;;;;;;8.25;3.88;;;;;;;6.77;89.38;98268.22;4105336;28;20738;-86
2022/02/22 03:53:22;;;;;;;5.28;1.73;;;;;;;6.84;89.54;98269.56;4119814;28;20778;-86
2022/02/22 03:55:26;;;;;;;10.73;2.05;;;;;;;6.89;89.65;98277.97;4107329;28;20213;-87
2022/02/22 03:57:29;;;;;;;8.10;2.38;;;;;;;6.93;88.15;98272.53;4101635;28;20210;-86
2022/02/22 03:59:32;;;;;;;7.93;2.20;;;;;;;6.96;88.50;98268.94;4118078;28;20210;-87
2022/02/22 04:01:36;;;;;;;9.45;2.30;;;;;;;6.97;89.05;98274.03;4116840;28;20211;-87
2022/02/22 04:03:39;;;;;;;8.48;2.20;;;;;;;6.98;87.91;98278.31;4136235;28;20239;-87
2022/02/22 04:05:46;;;;;;;6.22;2.00;;;;;;;6.96;87.07;98279.31;4118510;28;20209;-87
2022/02/22 04:07:50;;;;;;;12.45;2.10;;;;;;;6.96;87.64;98282.75;4110237;28;20216;-86
2022/02/22 04:09:53;;;;;;;9.75;2.10;;;;;;;6.99;87.45;98286.94;4120819;28;20624;-87
2022/02/22 04:11:56;;;;;;;5.50;2.10;;;;;;;6.95;86.39;98290.63;4107077;28;20220;-86
2022/02/22 04:13:59;;;;;;;4.20;2.08;;;;;;;6.98;87.59;98293.06;4122617;28;20212;-86
2022/02/22 04:16:02;;;;;;;8.07;2.45;;;;;;;6.97;87.49;98306.91;4101720;28;20757;-86
2022/02/22 04:18:07;;;;;;;5.43;2.00;;;;;;;6.96;86.97;98306.09;4102728;28;20212;-87
2022/02/22 04:20:11;;;;;;;6.70;1.90;;;;;;;6.96;87.63;98308.69;4121605;28;20218;-87
2022/02/22 04:22:15;;;;;;;8.77;2.25;;;;;;;7.01;86.92;98303.28;4108957;28;20389;-87
2022/02/22 04:24:18;;;;;;;7.20;1.92;;;;;;;7.03;87.26;98322.16;4106176;28;20206;-87
2022/02/22 04:26:21;;;;;;;9.98;2.35;;;;;;;7.01;86.79;98316.22;4105137;28;20205;-87
2022/02/22 04:28:25;;;;;;;7.15;1.80;;;;;;;6.98;86.16;98322.41;4118423;28;20268;-87
2022/02/22 04:30:28;;;;;;;7.63;2.15;;;;;;;6.99;86.75;98326.69;4120402;28;20253;-87
2022/02/22 04:32:36;;;;;;;6.63;2.22;;;;;;;7.00;85.43;98327.50;4107065;28;20230;-87
2022/02/22 04:34:40;;;;;;;7.95;2.00;;;;;;;6.98;86.50;98332.78;4123505;28;20209;-86
2022/02/22 04:36:43;;;;;;;8.18;2.10;;;;;;;6.94;86.49;98333.00;4105082;28;20248;-87
2022/02/22 04:38:47;;;;;;;7.55;2.05;;;;;;;6.94;86.05;98343.38;4133555;28;20258;-87
2022/02/22 04:40:50;;;;;;;4.85;1.95;;;;;;;6.95;85.90;98343.28;4201628;28;20737;-87
2022/02/22 04:42:53;;;;;;;7.65;1.80;;;;;;;6.97;86.04;98348.41;4133994;28;20662;-87
2022/02/22 04:44:56;;;;;;;9.07;1.88;;;;;;;6.98;86.52;98340.53;4119590;28;20651;-87
2022/02/22 04:46:59;;;;;;;9.18;2.63;;;;;;;7.00;86.46;98345.66;4121932;28;20391;-86
2022/02/22 04:49:02;;;;;;;8.63;2.53;;;;;;;7.03;84.82;98354.09;4186094;28;20207;-88
2022/02/22 04:51:06;;;;;;;8.98;1.92;;;;;;;7.02;85.91;98359.38;4100913;28;20233;-86
2022/02/22 04:53:10;;;;;;;6.50;2.60;;;;;;;7.01;86.26;98363.72;4115332;28;20206;-87
2022/02/22 04:55:14;;;;;;;5.55;2.22;;;;;;;7.04;85.03;98360.97;4117107;28;20216;-87
2022/02/22 04:57:18;;;;;;;5.88;2.22;;;;;;;7.00;85.30;98361.22;4118660;28;20196;-87
2022/02/22 04:59:22;;;;;;;7.55;2.20;;;;;;;7.01;85.01;98370.66;4117194;28;20710;-87
2022/02/22 05:01:25;;;;;;;5.30;2.30;;;;;;;7.00;84.75;98366.38;4119302;28;20285;-86
2022/02/22 05:03:28;;;;;;;9.95;2.22;;;;;;;6.98;85.24;98371.66;4117415;28;20199;-87
2022/02/22 05:05:31;;;;;;;9.10;2.67;;;;;;;6.95;85.37;98373.56;4133177;28;20204;-86
2022/02/22 05:07:39;;;;;;;7.10;2.17;;;;;;;6.95;85.93;98376.16;4120798;28;20625;-86
2022/02/22 05:09:42;;;;;;;8.73;2.50;;;;;;;6.96;86.22;98367.44;4121334;28;20816;-86
2022/02/22 05:11:45;;;;;;;3.83;2.05;;;;;;;6.96;85.04;98372.63;4105061;28;20586;-86
2022/02/22 05:13:48;;;;;;;5.40;2.30;;;;;;;6.93;84.96;98371.06;4131400;28;20204;-86
2022/02/22 05:15:57;;;;;;;6.78;2.50;;;;;;;6.91;85.76;98372.03;4106533;28;20231;-86
2022/02/22 05:18:01;;;;;;;8.25;3.22;;;;;;;6.86;85.03;98376.63;4119686;28;20243;-86
2022/02/22 05:20:06;;;;;;;6.10;2.05;;;;;;;6.83;85.24;98376.75;4104003;28;20645;-86
2022/02/22 05:22:09;;;;;;;6.57;2.20;;;;;;;6.81;85.47;98376.84;4107178;28;20713;-87
2022/02/22 05:24:13;;;;;;;9.70;2.20;;;;;;;6.78;85.12;98377.00;4105259;28;20214;-86
2022/02/22 05:26:18;;;;;;;9.07;2.78;;;;;;;6.76;85.65;98375.38;4124301;28;20288;-86
2022/02/22 05:28:22;;;;;;;7.50;2.85;;;;;;;6.74;85.93;98374.63;4120275;28;20784;-86
2022/02/22 05:30:26;;;;;;;7.55;2.70;;;;;;;6.73;86.09;98385.88;4099362;28;20210;-86
2022/02/22 05:32:30;;;;;;;5.30;2.83;;;;;;;6.71;85.50;98395.50;4115699;28;20225;-86
2022/02/22 05:34:34;;;;;;;6.50;2.55;;;;;;;6.66;85.39;98395.72;4121791;28;20200;-87
2022/02/22 05:36:37;;;;;;;4.22;2.90;;;;;;;6.68;85.33;98403.41;4124200;28;20228;-86
2022/02/22 05:38:40;;;;;;;7.68;2.95;;;;;;;6.65;85.64;98399.22;4104522;28;20731;-86
2022/02/22 05:40:46;;;;;;;5.07;2.60;;;;;;;6.63;86.09;98403.63;4119908;28;20212;-86
2022/02/22 05:42:50;;;;;;;10.05;3.15;;;;;;;6.62;85.42;98398.53;4115790;28;20565;-86
2022/02/22 05:44:53;;;;;;;4.97;2.70;;;;;;;6.57;85.99;98405.69;4120640;28;20260;-86
2022/02/22 05:46:56;;;;;;;5.93;2.35;;;;;;;6.57;86.24;98416.88;4130111;28;20732;-87
2022/02/22 05:48:59;;;;;;;8.50;2.67;;;;;;;6.54;85.54;98413.59;4118837;28;20210;-86
2022/02/22 05:51:02;;;;;;;5.57;2.53;;;;;;;6.51;86.25;98413.75;4122286;28;20606;-85
2022/02/22 05:53:06;;;;;;;5.20;2.33;;;;;;;6.50;86.22;98416.41;4120990;28;20205;-86
2022/02/22 05:55:09;;;;;;;9.75;3.45;;;;;;;6.49;86.33;98417.31;4108022;28;20210;-87
2022/02/22 05:57:14;;;;;;;8.07;2.67;;;;;;;6.49;85.85;98422.50;4129177;28;20217;-88
2022/02/22 05:59:17;;;;;;;8.32;2.85;;;;;;;6.45;85.76;98419.22;4126493;28;20683;-86
2022/02/22 06:01:20;;;;;;;7.72;2.40;;;;;;;6.42;85.98;98418.50;4107563;28;20205;-86
2022/02/22 06:03:24;;;;;;;8.48;3.33;;;;;;;6.38;86.12;98410.03;4127838;28;20204;-86
2022/02/22 06:05:27;;;;;;;10.00;3.00;;;;;;;6.36;86.20;98419.63;4110964;28;20208;-86
2022/02/22 06:07:35;;;;;;;10.07;2.83;;;;;;;6.37;86.14;98420.47;4104409;28;20236;-86
2022/02/22 06:09:38;;;;;;;4.43;2.45;;;;;;;6.35;86.07;98425.72;4123802;28;21356;-86
2022/02/22 06:11:42;;;;;;;10.73;2.80;;;;;;;6.34;86.06;98423.19;4126238;28;20252;-86
2022/02/22 06:13:46;;;;;;;10.32;3.47;;;;;;;6.36;86.07;98442.09;4126517;28;20207;-86
2022/02/22 06:15:50;;;;;;;8.50;2.95;;;;;;;6.33;86.55;98448.28;4129828;28;20205;-86
2022/02/22 06:17:55;;;;;;;9.60;3.90;;;;;;;6.33;86.49;98450.88;4122047;28;20237;-86
2022/02/22 06:19:59;;;;;;;6.28;3.50;;;;;;;6.32;85.98;98454.34;4120149;28;20213;-86
2022/02/22 06:22:04;;;;;;;7.75;3.10;;;;;;;6.32;86.67;98456.94;4124874;28;20209;-87
2022/02/22 06:24:08;;;;;;;9.93;3.45;;;;;;;6.32;86.18;98462.13;4109964;28;20294;-85
2022/02/22 06:26:11;;;;;;;6.15;2.50;;;;;;;6.34;86.58;98464.63;4124015;28;20200;-85
2022/02/22 06:28:14;;;;;;;6.45;3.10;;;;;;;6.32;86.15;98469.88;4124765;28;20205;-86
2022/02/22 06:30:20;;;;;;;7.82;2.90;;;;;;;6.34;86.59;98462.06;4127127;28;20205;-86
2022/02/22 06:32:23;;;;;;;4.90;2.80;;;;;;;6.38;86.07;98459.25;4119045;28;20240;-87
2022/02/22 06:34:26;;;;;;;7.03;2.90;;;;;;;6.45;86.14;98464.97;4110706;28;20809;-86
2022/02/22 06:36:30;;;;;;;9.60;2.85;;;;;;;6.50;86.37;98457.84;4125825;28;20261;-87
2022/02/22 06:38:33;;;;;;;5.78;2.65;;;;;;;6.50;86.33;98463.03;4125912;28;20242;-86
2022/02/22 06:40:37;;;;;;;5.45;2.35;;;;;;;6.53;86.54;98468.91;4104463;28;20223;-86
2022/02/22 06:42:40;;;;;;;16.63;2.90;;;;;;;6.54;86.16;98473.19;4118458;28;20612;-86
2022/02/22 06:44:43;;;;;;;10.30;2.92;;;;;;;6.56;86.16;98472.19;4123868;28;20222;-86
2022/02/22 06:46:47;;;;;;;7.28;2.53;;;;;;;6.64;85.60;98472.66;4132541;28;20648;-86
2022/02/22 06:48:50;;;;;;;7.22;2.83;;;;;;;6.67;85.51;98477.69;4127721;28;20214;-87
2022/02/22 06:50:54;;;;;;;6.68;2.60;;;;;;;6.72;85.43;98483.53;4121273;28;20211;-87
2022/02/22 06:52:57;;;;;;;9.93;3.22;;;;;;;6.74;85.89;98475.69;4104251;28;20419;-87
2022/02/22 06:55:00;;;;;;;12.18;5.45;;;;;;;6.76;85.26;98486.81;4120963;28;20204;-86
2022/02/22 06:57:06;;;;;;;5.63;2.78;;;;;;;6.78;85.77;98482.38;4100015;28;20358;-86
2022/02/22 06:59:10;;;;;;;10.20;2.75;;;;;;;6.79;85.45;98494.44;4125792;28;20209;-85
2022/02/22 07:01:13;;;;;;;5.20;2.30;;;;;;;6.77;85.25;98498.88;4128171;28;20217;-87
2022/02/22 07:03:16;;;;;;;7.32;2.55;;;;;;;6.76;85.50;98504.94;4126602;28;20228;-86
2022/02/22 07:05:20;;;;;;;11.00;2.65;;;;;;;6.72;84.28;98513.75;4125863;28;20243;-87
2022/02/22 07:07:29;;;;;;;8.35;2.78;;;;;;;6.71;84.54;98509.50;4130395;28;20752;-88
2022/02/22 07:09:32;;;;;;;8.60;2.28;;;;;;;6.70;85.06;98520.78;4130620;28;20204;-88
2022/02/22 07:11:35;;;;;;;6.28;2.72;;;;;;;6.72;84.72;98522.41;4128645;28;20259;-86
2022/02/22 07:13:41;;;;;;;5.63;2.60;;;;;;;6.75;85.40;98519.66;4133079;28;20597;-87
2022/02/22 07:15:46;;;;;;;8.90;3.20;;;;;;;6.77;84.79;98535.16;4122715;28;20208;-87
2022/02/22 07:17:50;;;;;;;5.22;2.75;;;;;;;6.83;85.42;98534.88;4125608;28;20699;-87
2022/02/22 07:19:55;;;;;;;5.93;2.65;;;;;;;6.85;84.51;98540.81;4128901;28;20214;-87
2022/02/22 07:21:58;;;;;;;10.35;2.50;;;;;;;6.85;84.31;98540.81;4128721;28;20220;-86
2022/02/22 07:24:01;;;;;;;9.85;3.20;;;;;;;6.85;84.37;98549.41;4122711;28;20210;-88
2022/02/22 07:26:04;;;;;;;6.50;2.85;;;;;;;6.86;84.58;98558.88;4108514;28;20217;-87
2022/02/22 07:28:07;;;;;;;7.95;2.65;;;;;;;6.89;84.69;98565.69;4111396;28;20611;-87
2022/02/22 07:30:13;;;;;;;10.18;3.10;;;;;;;6.93;83.57;98559.44;4122964;28;20292;-87
2022/02/22 07:32:18;;;;;;;10.40;3.25;;;;;;;6.90;83.34;98567.34;4119108;28;20793;-87
2022/02/22 07:34:21;;;;;;;9.45;3.08;;;;;;;6.87;83.90;98575.25;4123272;28;20209;-85
2022/02/22 07:36:24;;;;;;;8.90;3.08;;;;;;;6.90;84.17;98585.50;4107512;28;20626;-87
2022/02/22 07:38:27;;;;;;;6.78;2.83;;;;;;;6.94;83.92;98593.06;4118857;28;20202;-87
2022/02/22 07:40:30;;;;;;;7.90;3.10;;;;;;;6.97;84.12;98598.09;4123630;28;20214;-86
2022/02/22 07:42:33;;;;;;;5.22;3.40;;;;;;;6.98;84.53;98598.97;4118442;28;20727;-86
2022/02/22 07:44:36;;;;;;;12.95;3.38;;;;;;;6.89;85.21;98599.38;4109661;28;20206;-86
2022/02/22 07:46:40;;;;;;;6.72;3.40;;;;;;;6.89;85.32;98609.75;4119895;28;20214;-85
2022/02/22 07:48:44;;;;;;;5.72;3.10;;;;;;;6.97;84.57;98618.00;4115606;28;20198;-86
2022/02/22 07:50:47;;;;;;;12.82;5.90;;;;;;;6.98;85.36;98619.69;4123011;28;20218;-86
2022/02/22 07:52:50;;;;;;;8.35;3.35;;;;;;;7.05;85.10;98627.09;4115804;28;20222;-85
2022/02/22 07:54:53;;;;;;;7.15;3.45;;;;;;;7.11;84.62;98627.69;4119015;28;20698;-87
2022/02/22 07:56:56;;;;;;;8.25;3.50;;;;;;;7.19;85.19;98635.09;4126575;28;20211;-87
2022/02/22 07:58:59;;;;;;;6.75;3.20;;;;;;;7.22;84.60;98630.59;4123596;28;20261;-87
2022/02/22 08:01:03;;;;;;;14.70;3.75;;;;;;;7.29;85.29;98637.22;4121768;28;20208;-86
2022/02/22 08:03:06;;;;;;;8.68;3.10;;;;;;;7.31;84.42;98631.94;4123674;28;20211;-86
2022/02/22 08:05:11;;;;;;;8.60;3.25;;;;;;;7.37;85.24;98639.44;4117715;28;20206;-86
2022/02/22 08:07:16;;;;;;;8.90;3.50;;;;;;;7.47;85.38;98644.09;4102078;28;20211;-86
2022/02/22 08:09:19;;;;;;;9.52;3.50;;;;;;;7.55;83.71;98644.59;4118661;28;20220;-86
2022/02/22 08:11:26;;;;;;;8.88;3.08;;;;;;;7.55;84.20;98645.44;4121239;28;20214;-85
2022/02/22 08:13:29;;;;;;;6.32;3.05;;;;;;;7.68;84.07;98650.88;4122202;28;20235;-86
2022/02/22 08:15:33;;;;;;;10.13;3.25;;;;;;;7.78;82.17;98652.13;4124750;28;20218;-86
2022/02/22 08:17:40;;;;;;;10.65;3.13;;;;;;;7.85;83.15;98669.06;4120665;28;20720;-86
2022/02/22 08:19:43;;;;;;;9.20;3.00;;;;;;;7.88;82.48;98664.59;4130389;28;20267;-85
2022/02/22 08:21:47;;;;;;;9.77;3.67;;;;;;;7.87;83.56;98668.09;4120372;28;20290;-86
2022/02/22 08:23:51;;;;;;;7.07;3.25;;;;;;;7.85;83.39;98669.94;4120884;28;20634;-85
2022/02/22 08:25:54;;;;;;;15.02;3.35;;;;;;;7.88;83.33;98668.91;4105044;28;20255;-85
2022/02/22 08:27:57;;;;;;;8.85;3.20;;;;;;;7.89;81.70;98668.00;4120491;28;20706;-85
2022/02/22 08:30:00;;;;;;;8.30;3.33;;;;;;;7.91;82.25;98674.81;4123148;28;20642;-85
2022/02/22 08:32:04;;;;;;;9.43;3.50;;;;;;;7.98;82.34;98671.00;4124753;28;20676;-86
2022/02/22 08:34:08;;;;;;;11.25;3.03;;;;;;;8.19;82.33;98667.38;4122090;28;20230;-86
2022/02/22 08:36:11;;;;;;;8.40;2.97;;;;;;;8.31;80.98;98680.59;4123993;28;20212;-84
2022/02/22 08:38:16;;;;;;;10.38;3.53;;;;;;;8.24;81.75;98679.22;4122873;28;20193;-86
2022/02/22 08:40:20;;;;;;;11.23;3.30;;;;;;;8.15;81.48;98677.09;4127429;28;20211;-85
2022/02/22 08:42:23;;;;;;;9.30;3.22;;;;;;;8.09;80.61;98687.75;4135720;28;20636;-85
2022/02/22 08:44:46;;;;;;;6.95;3.25;;;;;;;8.08;81.24;98688.66;4125369;28;20260;-86
2022/02/22 08:46:51;;;;;;;8.73;2.90;;;;;;;8.08;81.55;98693.03;4125578;28;20629;-85
2022/02/22 08:48:55;;;;;;;9.30;2.92;;;;;;;8.19;80.68;98696.78;4126020;28;20207;-85
2022/02/22 08:50:58;;;;;;;9.50;3.77;;;;;;;8.31;81.56;98696.19;4126584;28;20217;-86
2022/02/22 08:53:02;;;;;;;10.60;2.90;;;;;;;8.38;80.09;98696.75;4128907;28;20637;-86
2022/02/22 08:55:08;;;;;;;7.78;3.00;;;;;;;8.36;78.98;98709.81;4120775;28;20205;-85
2022/02/22 08:57:11;;;;;;;8.17;3.07;;;;;;;8.43;81.03;98716.38;4101644;28;20240;-85
2022/02/22 08:59:15;;;;;;;9.27;3.20;;;;;;;8.46;80.96;98717.06;4124117;28;20634;-86
2022/02/22 09:01:18;;;;;;;5.83;2.60;;;;;;;8.45;79.67;98715.38;4124520;28;20699;-86
2022/02/22 09:03:21;;;;;;;12.67;2.90;;;;;;;8.48;81.45;98714.41;4126296;28;20636;-85
2022/02/22 09:05:25;;;;;;;9.30;2.87;;;;;;;8.54;79.88;98716.69;4128524;28;21218;-85
2022/02/22 09:07:29;;;;;;;8.52;3.10;;;;;;;8.58;79.56;98711.22;4117379;28;20631;-85
2022/02/22 09:09:37;;;;;;;10.40;3.28;;;;;;;8.76;79.40;98712.91;4126146;28;20370;-85
2022/02/22 09:11:42;;;;;;;9.80;2.60;;;;;;;8.90;78.86;98710.44;4126627;28;20696;-85
2022/02/22 09:13:45;;;;;;;8.32;2.83;;;;;;;9.03;78.46;98714.91;4117144;28;20664;-85
2022/02/22 09:15:49;;;;;;;5.28;2.47;;;;;;;9.29;78.52;98705.72;4134453;28;20203;-86
2022/02/22 09:17:52;;;;;;;8.20;3.27;;;;;;;9.21;78.20;98711.34;4127596;28;20298;-85
2022/02/22 09:19:56;;;;;;;7.88;3.15;;;;;;;9.23;79.04;98712.13;4122278;28;20632;-85
2022/02/22 09:21:59;;;;;;;9.20;3.63;;;;;;;9.24;77.13;98708.59;4128567;28;20244;-86
2022/02/22 09:24:02;;;;;;;10.20;3.03;;;;;;;9.35;77.81;98714.06;4106543;28;20656;-85
2022/02/22 09:26:05;;;;;;;10.30;2.63;;;;;;;9.46;78.38;98712.56;4121592;28;20717;-86
2022/02/22 09:28:11;;;;;;;10.20;2.53;;;;;;;9.41;76.87;98711.97;4119216;28;20639;-85
2022/02/22 09:30:19;;;;;;;6.60;2.77;;;;;;;9.38;76.46;98711.28;4118072;28;20303;-85
2022/02/22 09:32:23;;;;;;;7.50;3.30;;;;;;;9.36;75.86;98713.13;4204835;28;20698;-86
2022/02/22 09:34:26;;;;;;;10.30;2.80;;;;;;;9.31;75.53;98711.72;4122541;28;20689;-86
2022/02/22 09:36:29;;;;;;;10.43;3.13;;;;;;;9.29;75.63;98708.34;4104631;28;22143;-85
2022/02/22 09:38:33;;;;;;;10.33;4.93;;;;;;;9.27;75.42;98703.22;4123629;28;20722;-85
2022/02/22 09:40:36;;;;;;;5.53;2.57;;;;;;;9.28;75.52;98707.50;4124097;28;20712;-87
2022/02/22 09:42:39;;;;;;;9.00;2.70;;;;;;;9.31;75.78;98704.75;4121907;28;21037;-87
2022/02/22 09:44:44;;;;;;;7.53;2.83;;;;;;;9.39;75.58;98711.19;4120943;28;20636;-86
2022/02/22 09:46:48;;;;;;;5.80;2.67;;;;;;;9.45;74.96;98710.03;4129157;28;20626;-86
2022/02/22 09:48:51;;;;;;;7.53;2.63;;;;;;;9.49;75.90;98717.59;4123900;28;20689;-86
2022/02/22 09:50:55;;;;;;;10.90;2.43;;;;;;;9.59;75.36;98713.59;4122940;28;21025;-85
2022/02/22 09:52:58;;;;;;;5.60;3.10;;;;;;;9.68;73.92;98717.44;4118386;28;20637;-85
2022/02/22 09:55:01;;;;;;;7.27;2.43;;;;;;;9.76;74.43;98703.09;4134799;28;20759;-87
2022/02/22 09:57:05;;;;;;;4.67;2.17;;;;;;;9.76;73.52;98718.72;4123701;28;20636;-88
2022/02/22 09:59:08;;;;;;;9.00;2.83;;;;;;;9.81;73.45;98721.06;4126000;28;20637;-87
2022/02/22 10:01:13;;;;;;;7.20;2.77;;;;;;;9.83;73.47;98714.00;4126400;28;20702;-88
2022/02/22 10:03:17;;;;;;;6.57;2.50;;;;;;;9.81;73.62;98716.69;4113140;28;20641;-86
2022/02/22 10:05:22;;;;;;;9.30;2.77;;;;;;;9.79;74.12;98717.69;4125527;28;20745;-87
2022/02/22 10:07:30;;;;;;;8.50;2.90;;;;;;;9.72;74.34;98722.41;4126093;28;20631;-85
2022/02/22 10:09:34;;;;;;;8.60;2.53;;;;;;;9.67;74.81;98716.59;4123964;28;21265;-88
2022/02/22 10:11:45;;;;;;;6.40;2.83;;;;;;;9.62;74.23;98716.03;4123983;28;20653;-88
2022/02/22 10:13:52;;;;;;;8.57;3.30;;;;;;;9.62;75.34;98720.38;4119183;28;20671;-87
2022/02/22 10:15:55;;;;;;;16.40;3.07;;;;;;;9.54;76.60;98719.97;4125988;28;20634;-87
2022/02/22 10:18:04;;;;;;;10.53;3.00;;;;;;;9.50;76.63;98718.44;4123875;28;20633;-87
2022/02/22 10:20:10;;;;;;;9.40;2.40;;;;;;;9.47;76.14;98713.38;4133072;28;20645;-88
2022/02/22 10:22:13;;;;;;;8.77;2.70;;;;;;;9.49;76.04;98716.78;4129377;28;21228;-86
2022/02/22 10:24:18;;;;;;;8.10;2.60;;;;;;;9.49;76.26;98719.38;4128079;28;20629;-86
2022/02/22 10:26:24;;;;;;;7.20;2.70;;;;;;;9.50;76.40;98708.88;4136810;28;20643;-87
2022/02/22 10:28:27;;;;;;;5.70;2.65;;;;;;;9.57;76.68;98712.81;4129867;28;20626;-86
2022/02/22 10:30:38;;;;;;;10.87;2.60;;;;;;;9.69;76.83;98695.69;4127570;28;20222;-87